sensor_id;sensor_type;location;lat;lon;timestamp;P1;durP1;ratioP1;P2;durP2;ratioP2
21170;SDS011;10743;52.160;20.910;2022-09-19T00:01:51;6.93;;;2.15;;
21170;SDS011;10743;52.160;20.910;2022-09-19T00:04:22;7.05;;;2.35;;
21170;SDS011;10743;52.160;20.910;2022-09-19T00:06:55;8.85;;;2.70;;
21170;SDS011;10743;52.160;20.910;2022-09-19T00:09:24;5.47;;;2.22;;
21170;SDS011;10743;52.160;20.910;2022-09-19T00:11:55;4.50;;;2.17;;
21170;SDS011;10743;52.160;20.910;2022-09-19T00:14:25;4.53;;;2.38;;
21170;SDS011;10743;52.160;20.910;2022-09-19T00:16:56;6.37;;;2.00;;
21170;SDS011;10743;52.160;20.910;2022-09-19T00:19:25;3.28;;;1.90;;
21170;SDS011;10743;52.160;20.910;2022-09-19T00:21:54;5.63;;;2.00;;
21170;SDS011;10743;52.160;20.910;2022-09-19T00:24:23;9.03;;;2.83;;
21170;SDS011;10743;52.160;20.910;2022-09-19T00:27:10;4.83;;;2.27;;
21170;SDS011;10743;52.160;20.910;2022-09-19T00:29:39;4.73;;;1.90;;
21170;SDS011;10743;52.160;20.910;2022-09-19T00:32:10;5.47;;;2.10;;
21170;SDS011;10743;52.160;20.910;2022-09-19T00:34:43;4.80;;;2.07;;
21170;SDS011;10743;52.160;20.910;2022-09-19T00:37:14;4.33;;;2.07;;
21170;SDS011;10743;52.160;20.910;2022-09-19T00:39:46;7.20;;;2.27;;
21170;SDS011;10743;52.160;20.910;2022-09-19T00:42:14;5.53;;;2.42;;
21170;SDS011;10743;52.160;20.910;2022-09-19T00:44:52;6.13;;;2.53;;
21170;SDS011;10743;52.160;20.910;2022-09-19T00:47:24;5.78;;;2.50;;
21170;SDS011;10743;52.160;20.910;2022-09-19T00:50:04;5.63;;;2.67;;
21170;SDS011;10743;52.160;20.910;2022-09-19T00:52:44;7.97;;;2.47;;
21170;SDS011;10743;52.160;20.910;2022-09-19T00:55:25;6.20;;;2.40;;
21170;SDS011;10743;52.160;20.910;2022-09-19T00:57:55;5.93;;;2.13;;
21170;SDS011;10743;52.160;20.910;2022-09-19T01:00:29;7.23;;;3.17;;
21170;SDS011;10743;52.160;20.910;2022-09-19T01:02:57;5.27;;;2.50;;
21170;SDS011;10743;52.160;20.910;2022-09-19T01:05:26;12.17;;;2.23;;
21170;SDS011;10743;52.160;20.910;2022-09-19T01:08:22;5.37;;;2.40;;
21170;SDS011;10743;52.160;20.910;2022-09-19T01:17:43;5.57;;;2.60;;
21170;SDS011;10743;52.160;20.910;2022-09-19T01:20:33;7.82;;;2.55;;
21170;SDS011;10743;52.160;20.910;2022-09-19T01:26:30;5.07;;;2.70;;
21170;SDS011;10743;52.160;20.910;2022-09-19T01:29:21;5.73;;;2.50;;
21170;SDS011;10743;52.160;20.910;2022-09-19T01:32:05;6.97;;;2.50;;
21170;SDS011;10743;52.160;20.910;2022-09-19T01:34:38;5.70;;;2.60;;
21170;SDS011;10743;52.160;20.910;2022-09-19T01:37:12;5.82;;;2.70;;
21170;SDS011;10743;52.160;20.910;2022-09-19T01:39:56;6.57;;;2.70;;
21170;SDS011;10743;52.160;20.910;2022-09-19T01:42:27;4.67;;;2.20;;
21170;SDS011;10743;52.160;20.910;2022-09-19T01:44:57;6.23;;;2.73;;
21170;SDS011;10743;52.160;20.910;2022-09-19T01:47:34;5.43;;;2.73;;
21170;SDS011;10743;52.160;20.910;2022-09-19T01:50:18;7.97;;;2.70;;
21170;SDS011;10743;52.160;20.910;2022-09-19T01:53:09;6.57;;;2.53;;
21170;SDS011;10743;52.160;20.910;2022-09-19T01:59:30;7.27;;;2.53;;
21170;SDS011;10743;52.160;20.910;2022-09-19T02:02:20;4.90;;;2.60;;
21170;SDS011;10743;52.160;20.910;2022-09-19T02:05:11;6.20;;;2.70;;
21170;SDS011;10743;52.160;20.910;2022-09-19T02:08:22;3.50;;;2.30;;
21170;SDS011;10743;52.160;20.910;2022-09-19T02:11:40;4.00;;;2.23;;
21170;SDS011;10743;52.160;20.910;2022-09-19T02:14:11;4.70;;;1.97;;
21170;SDS011;10743;52.160;20.910;2022-09-19T02:16:51;4.77;;;2.77;;
21170;SDS011;10743;52.160;20.910;2022-09-19T02:19:30;5.53;;;2.50;;
21170;SDS011;10743;52.160;20.910;2022-09-19T02:22:02;5.37;;;2.83;;
21170;SDS011;10743;52.160;20.910;2022-09-19T02:24:37;5.67;;;2.77;;
21170;SDS011;10743;52.160;20.910;2022-09-19T02:27:09;5.30;;;2.73;;
21170;SDS011;10743;52.160;20.910;2022-09-19T02:29:53;6.77;;;2.77;;
21170;SDS011;10743;52.160;20.910;2022-09-19T02:32:29;7.50;;;2.43;;
21170;SDS011;10743;52.160;20.910;2022-09-19T02:34:57;9.20;;;2.80;;
21170;SDS011;10743;52.160;20.910;2022-09-19T02:37:35;4.63;;;2.43;;
21170;SDS011;10743;52.160;20.910;2022-09-19T02:40:18;6.57;;;2.80;;
21170;SDS011;10743;52.160;20.910;2022-09-19T02:45:39;4.83;;;2.90;;
21170;SDS011;10743;52.160;20.910;2022-09-19T02:48:17;6.20;;;2.70;;
21170;SDS011;10743;52.160;20.910;2022-09-19T02:51:03;7.97;;;2.57;;
21170;SDS011;10743;52.160;20.910;2022-09-19T02:53:44;10.50;;;2.70;;
21170;SDS011;10743;52.160;20.910;2022-09-19T02:56:20;4.47;;;2.70;;
21170;SDS011;10743;52.160;20.910;2022-09-19T02:58:57;4.97;;;2.83;;
21170;SDS011;10743;52.160;20.910;2022-09-19T03:02:07;5.27;;;2.77;;
21170;SDS011;10743;52.160;20.910;2022-09-19T03:05:05;9.60;;;2.60;;
21170;SDS011;10743;52.160;20.910;2022-09-19T03:07:50;5.63;;;3.17;;
21170;SDS011;10743;52.160;20.910;2022-09-19T03:10:30;6.50;;;2.93;;
21170;SDS011;10743;52.160;20.910;2022-09-19T03:13:26;5.77;;;2.80;;
21170;SDS011;10743;52.160;20.910;2022-09-19T03:16:00;7.77;;;2.70;;
21170;SDS011;10743;52.160;20.910;2022-09-19T03:18:35;4.30;;;2.67;;
21170;SDS011;10743;52.160;20.910;2022-09-19T03:21:07;6.77;;;2.73;;
21170;SDS011;10743;52.160;20.910;2022-09-19T03:23:39;6.20;;;3.13;;
21170;SDS011;10743;52.160;20.910;2022-09-19T03:26:22;5.13;;;2.63;;
21170;SDS011;10743;52.160;20.910;2022-09-19T03:28:58;3.50;;;2.73;;
21170;SDS011;10743;52.160;20.910;2022-09-19T03:31:33;6.77;;;2.90;;
21170;SDS011;10743;52.160;20.910;2022-09-19T03:34:04;5.40;;;2.73;;
21170;SDS011;10743;52.160;20.910;2022-09-19T03:36:33;6.17;;;2.70;;
21170;SDS011;10743;52.160;20.910;2022-09-19T03:39:01;5.43;;;3.00;;
21170;SDS011;10743;52.160;20.910;2022-09-19T03:41:34;5.20;;;3.00;;
21170;SDS011;10743;52.160;20.910;2022-09-19T03:44:06;4.70;;;2.90;;
21170;SDS011;10743;52.160;20.910;2022-09-19T03:46:35;6.00;;;2.90;;
21170;SDS011;10743;52.160;20.910;2022-09-19T03:49:02;7.40;;;3.20;;
21170;SDS011;10743;52.160;20.910;2022-09-19T03:51:30;9.47;;;3.17;;
21170;SDS011;10743;52.160;20.910;2022-09-19T03:54:01;12.60;;;2.80;;
21170;SDS011;10743;52.160;20.910;2022-09-19T03:56:34;5.87;;;3.30;;
21170;SDS011;10743;52.160;20.910;2022-09-19T03:59:04;5.93;;;3.10;;
21170;SDS011;10743;52.160;20.910;2022-09-19T04:01:36;5.80;;;3.10;;
21170;SDS011;10743;52.160;20.910;2022-09-19T04:04:03;4.97;;;3.37;;
21170;SDS011;10743;52.160;20.910;2022-09-19T04:06:36;5.10;;;3.20;;
21170;SDS011;10743;52.160;20.910;2022-09-19T04:09:03;5.83;;;3.40;;
21170;SDS011;10743;52.160;20.910;2022-09-19T04:11:30;6.53;;;3.33;;
21170;SDS011;10743;52.160;20.910;2022-09-19T04:13:57;6.27;;;3.67;;
21170;SDS011;10743;52.160;20.910;2022-09-19T04:16:25;8.07;;;4.00;;
21170;SDS011;10743;52.160;20.910;2022-09-19T04:18:53;5.67;;;3.47;;
21170;SDS011;10743;52.160;20.910;2022-09-19T04:21:38;6.67;;;3.47;;
21170;SDS011;10743;52.160;20.910;2022-09-19T04:24:28;8.60;;;3.70;;
21170;SDS011;10743;52.160;20.910;2022-09-19T04:27:14;10.07;;;4.20;;
21170;SDS011;10743;52.160;20.910;2022-09-19T04:29:47;6.67;;;3.97;;
21170;SDS011;10743;52.160;20.910;2022-09-19T04:32:14;7.83;;;4.10;;
21170;SDS011;10743;52.160;20.910;2022-09-19T04:34:46;6.93;;;4.10;;
21170;SDS011;10743;52.160;20.910;2022-09-19T04:37:13;8.63;;;3.93;;
21170;SDS011;10743;52.160;20.910;2022-09-19T04:39:48;7.97;;;3.90;;
21170;SDS011;10743;52.160;20.910;2022-09-19T04:42:16;6.40;;;4.10;;
21170;SDS011;10743;52.160;20.910;2022-09-19T04:44:44;6.33;;;3.80;;
21170;SDS011;10743;52.160;20.910;2022-09-19T04:47:18;6.70;;;3.90;;
21170;SDS011;10743;52.160;20.910;2022-09-19T04:49:45;7.47;;;4.37;;
21170;SDS011;10743;52.160;20.910;2022-09-19T04:52:12;10.37;;;4.20;;
21170;SDS011;10743;52.160;20.910;2022-09-19T04:54:42;7.50;;;4.00;;
21170;SDS011;10743;52.160;20.910;2022-09-19T04:57:12;8.73;;;4.03;;
21170;SDS011;10743;52.160;20.910;2022-09-19T04:59:41;9.27;;;4.30;;
21170;SDS011;10743;52.160;20.910;2022-09-19T05:02:10;10.87;;;5.30;;
21170;SDS011;10743;52.160;20.910;2022-09-19T05:04:37;7.00;;;4.00;;
21170;SDS011;10743;52.160;20.910;2022-09-19T05:07:04;16.90;;;5.53;;
21170;SDS011;10743;52.160;20.910;2022-09-19T05:09:33;17.80;;;5.50;;
21170;SDS011;10743;52.160;20.910;2022-09-19T05:12:05;10.77;;;5.30;;
21170;SDS011;10743;52.160;20.910;2022-09-19T05:14:39;7.13;;;4.70;;
21170;SDS011;10743;52.160;20.910;2022-09-19T05:17:07;7.27;;;4.60;;
21170;SDS011;10743;52.160;20.910;2022-09-19T05:19:37;7.87;;;4.90;;
21170;SDS011;10743;52.160;20.910;2022-09-19T05:22:05;8.57;;;5.13;;
21170;SDS011;10743;52.160;20.910;2022-09-19T05:24:33;8.70;;;5.00;;
21170;SDS011;10743;52.160;20.910;2022-09-19T05:27:04;6.37;;;4.47;;
21170;SDS011;10743;52.160;20.910;2022-09-19T05:29:34;8.80;;;4.63;;
21170;SDS011;10743;52.160;20.910;2022-09-19T05:32:06;9.07;;;5.07;;
21170;SDS011;10743;52.160;20.910;2022-09-19T05:34:55;8.90;;;4.40;;
21170;SDS011;10743;52.160;20.910;2022-09-19T05:37:48;10.97;;;4.70;;
21170;SDS011;10743;52.160;20.910;2022-09-19T05:40:35;9.07;;;4.30;;
21170;SDS011;10743;52.160;20.910;2022-09-19T05:43:29;10.07;;;4.67;;
21170;SDS011;10743;52.160;20.910;2022-09-19T05:45:57;11.80;;;5.03;;
21170;SDS011;10743;52.160;20.910;2022-09-19T05:48:25;9.63;;;4.60;;
21170;SDS011;10743;52.160;20.910;2022-09-19T05:50:53;13.47;;;6.17;;
21170;SDS011;10743;52.160;20.910;2022-09-19T05:53:20;13.43;;;6.33;;
21170;SDS011;10743;52.160;20.910;2022-09-19T05:56:21;9.90;;;5.60;;
21170;SDS011;10743;52.160;20.910;2022-09-19T05:58:56;8.70;;;5.27;;
21170;SDS011;10743;52.160;20.910;2022-09-19T06:01:25;11.33;;;5.40;;
21170;SDS011;10743;52.160;20.910;2022-09-19T06:03:53;9.10;;;5.07;;
21170;SDS011;10743;52.160;20.910;2022-09-19T06:06:22;11.73;;;6.23;;
21170;SDS011;10743;52.160;20.910;2022-09-19T06:08:54;8.70;;;5.23;;
21170;SDS011;10743;52.160;20.910;2022-09-19T06:11:26;11.60;;;5.60;;
21170;SDS011;10743;52.160;20.910;2022-09-19T06:13:53;13.40;;;5.77;;
21170;SDS011;10743;52.160;20.910;2022-09-19T06:16:40;9.17;;;5.47;;
21170;SDS011;10743;52.160;20.910;2022-09-19T06:19:23;8.40;;;5.90;;
21170;SDS011;10743;52.160;20.910;2022-09-19T06:22:12;8.68;;;5.78;;
21170;SDS011;10743;52.160;20.910;2022-09-19T06:24:41;11.27;;;6.63;;
21170;SDS011;10743;52.160;20.910;2022-09-19T06:27:10;13.43;;;6.30;;
21170;SDS011;10743;52.160;20.910;2022-09-19T06:29:42;10.37;;;6.57;;
21170;SDS011;10743;52.160;20.910;2022-09-19T06:32:17;8.80;;;5.50;;
21170;SDS011;10743;52.160;20.910;2022-09-19T06:34:46;9.23;;;5.70;;
21170;SDS011;10743;52.160;20.910;2022-09-19T06:37:27;11.73;;;6.60;;
21170;SDS011;10743;52.160;20.910;2022-09-19T06:39:54;9.70;;;6.20;;
21170;SDS011;10743;52.160;20.910;2022-09-19T06:42:40;9.50;;;6.13;;
21170;SDS011;10743;52.160;20.910;2022-09-19T06:45:25;8.97;;;5.30;;
21170;SDS011;10743;52.160;20.910;2022-09-19T06:48:04;10.37;;;6.50;;
21170;SDS011;10743;52.160;20.910;2022-09-19T06:50:38;11.93;;;6.28;;
21170;SDS011;10743;52.160;20.910;2022-09-19T06:53:07;9.30;;;6.32;;
21170;SDS011;10743;52.160;20.910;2022-09-19T06:55:35;9.57;;;6.37;;
21170;SDS011;10743;52.160;20.910;2022-09-19T06:58:07;10.03;;;6.07;;
21170;SDS011;10743;52.160;20.910;2022-09-19T07:00:37;10.50;;;6.70;;
21170;SDS011;10743;52.160;20.910;2022-09-19T07:03:06;12.77;;;7.33;;
21170;SDS011;10743;52.160;20.910;2022-09-19T07:05:39;12.43;;;6.73;;
21170;SDS011;10743;52.160;20.910;2022-09-19T07:08:18;9.03;;;6.27;;
21170;SDS011;10743;52.160;20.910;2022-09-19T07:10:47;11.03;;;5.70;;
21170;SDS011;10743;52.160;20.910;2022-09-19T07:13:14;10.93;;;6.60;;
21170;SDS011;10743;52.160;20.910;2022-09-19T07:15:47;11.83;;;7.03;;
21170;SDS011;10743;52.160;20.910;2022-09-19T07:18:15;10.37;;;6.13;;
21170;SDS011;10743;52.160;20.910;2022-09-19T07:20:44;9.30;;;6.47;;
21170;SDS011;10743;52.160;20.910;2022-09-19T07:23:17;10.47;;;6.03;;
21170;SDS011;10743;52.160;20.910;2022-09-19T07:25:45;12.02;;;7.00;;
21170;SDS011;10743;52.160;20.910;2022-09-19T07:28:17;12.20;;;6.77;;
21170;SDS011;10743;52.160;20.910;2022-09-19T07:30:45;11.57;;;6.77;;
21170;SDS011;10743;52.160;20.910;2022-09-19T07:33:19;14.07;;;6.77;;
21170;SDS011;10743;52.160;20.910;2022-09-19T07:35:47;9.38;;;6.30;;
21170;SDS011;10743;52.160;20.910;2022-09-19T07:38:15;11.73;;;6.90;;
21170;SDS011;10743;52.160;20.910;2022-09-19T07:40:59;9.33;;;6.87;;
21170;SDS011;10743;52.160;20.910;2022-09-19T07:43:47;9.67;;;6.40;;
21170;SDS011;10743;52.160;20.910;2022-09-19T07:46:34;13.75;;;6.32;;
21170;SDS011;10743;52.160;20.910;2022-09-19T07:49:15;10.73;;;5.67;;
21170;SDS011;10743;52.160;20.910;2022-09-19T07:52:03;13.07;;;5.80;;
21170;SDS011;10743;52.160;20.910;2022-09-19T07:54:30;11.48;;;5.47;;
21170;SDS011;10743;52.160;20.910;2022-09-19T07:56:58;14.97;;;6.30;;
21170;SDS011;10743;52.160;20.910;2022-09-19T07:59:26;8.68;;;5.80;;
21170;SDS011;10743;52.160;20.910;2022-09-19T08:01:57;9.57;;;6.07;;
21170;SDS011;10743;52.160;20.910;2022-09-19T08:04:31;8.53;;;5.37;;
21170;SDS011;10743;52.160;20.910;2022-09-19T08:06:58;8.85;;;5.18;;
21170;SDS011;10743;52.160;20.910;2022-09-19T08:09:27;7.35;;;4.85;;
21170;SDS011;10743;52.160;20.910;2022-09-19T08:12:10;7.88;;;5.18;;
21170;SDS011;10743;52.160;20.910;2022-09-19T08:14:49;10.10;;;5.33;;
21170;SDS011;10743;52.160;20.910;2022-09-19T08:17:17;8.53;;;5.13;;
21170;SDS011;10743;52.160;20.910;2022-09-19T08:19:45;10.00;;;5.17;;
21170;SDS011;10743;52.160;20.910;2022-09-19T08:22:13;8.10;;;5.10;;
21170;SDS011;10743;52.160;20.910;2022-09-19T08:24:50;7.80;;;5.23;;
21170;SDS011;10743;52.160;20.910;2022-09-19T08:27:17;8.32;;;5.50;;
21170;SDS011;10743;52.160;20.910;2022-09-19T08:29:45;7.72;;;5.20;;
21170;SDS011;10743;52.160;20.910;2022-09-19T08:32:14;9.20;;;5.13;;
21170;SDS011;10743;52.160;20.910;2022-09-19T08:34:41;7.20;;;5.47;;
21170;SDS011;10743;52.160;20.910;2022-09-19T08:37:08;6.17;;;4.40;;
21170;SDS011;10743;52.160;20.910;2022-09-19T08:39:40;9.45;;;4.88;;
21170;SDS011;10743;52.160;20.910;2022-09-19T08:42:41;7.97;;;5.07;;
21170;SDS011;10743;52.160;20.910;2022-09-19T08:49:04;9.00;;;5.35;;
21170;SDS011;10743;52.160;20.910;2022-09-19T08:51:49;6.93;;;5.22;;
21170;SDS011;10743;52.160;20.910;2022-09-19T08:54:43;11.88;;;5.88;;
21170;SDS011;10743;52.160;20.910;2022-09-19T08:57:26;19.20;;;10.70;;
21170;SDS011;10743;52.160;20.910;2022-09-19T09:00:04;12.23;;;7.23;;
21170;SDS011;10743;52.160;20.910;2022-09-19T09:02:52;14.50;;;8.80;;
21170;SDS011;10743;52.160;20.910;2022-09-19T09:11:16;11.45;;;6.88;;
21170;SDS011;10743;52.160;20.910;2022-09-19T09:16:57;10.67;;;6.53;;
21170;SDS011;10743;52.160;20.910;2022-09-19T09:20:16;8.73;;;5.88;;
21170;SDS011;10743;52.160;20.910;2022-09-19T09:23:23;11.97;;;6.97;;
21170;SDS011;10743;52.160;20.910;2022-09-19T09:26:24;11.32;;;6.68;;
21170;SDS011;10743;52.160;20.910;2022-09-19T09:29:01;16.03;;;8.97;;
21170;SDS011;10743;52.160;20.910;2022-09-19T09:32:00;13.63;;;8.38;;
21170;SDS011;10743;52.160;20.910;2022-09-19T09:34:55;24.50;;;10.23;;
21170;SDS011;10743;52.160;20.910;2022-09-19T09:37:47;17.25;;;9.30;;
21170;SDS011;10743;52.160;20.910;2022-09-19T09:40:49;11.32;;;6.55;;
21170;SDS011;10743;52.160;20.910;2022-09-19T09:43:56;11.70;;;6.32;;
21170;SDS011;10743;52.160;20.910;2022-09-19T09:49:40;8.85;;;5.95;;
21170;SDS011;10743;52.160;20.910;2022-09-19T09:55:14;10.67;;;6.03;;
21170;SDS011;10743;52.160;20.910;2022-09-19T10:01:14;9.73;;;6.07;;
21170;SDS011;10743;52.160;20.910;2022-09-19T10:07:25;12.60;;;7.45;;
21170;SDS011;10743;52.160;20.910;2022-09-19T10:10:15;9.48;;;5.75;;
21170;SDS011;10743;52.160;20.910;2022-09-19T10:12:50;10.40;;;6.43;;
21170;SDS011;10743;52.160;20.910;2022-09-19T10:15:31;10.73;;;6.45;;
21170;SDS011;10743;52.160;20.910;2022-09-19T10:18:11;12.25;;;6.15;;
21170;SDS011;10743;52.160;20.910;2022-09-19T10:20:53;11.02;;;5.72;;
21170;SDS011;10743;52.160;20.910;2022-09-19T10:23:26;15.77;;;7.65;;
21170;SDS011;10743;52.160;20.910;2022-09-19T10:26:04;11.02;;;6.78;;
21170;SDS011;10743;52.160;20.910;2022-09-19T10:28:47;11.15;;;5.97;;
21170;SDS011;10743;52.160;20.910;2022-09-19T10:31:47;6.78;;;4.80;;
21170;SDS011;10743;52.160;20.910;2022-09-19T10:34:29;8.68;;;4.90;;
21170;SDS011;10743;52.160;20.910;2022-09-19T10:37:24;7.70;;;3.88;;
21170;SDS011;10743;52.160;20.910;2022-09-19T10:39:58;7.20;;;3.97;;
21170;SDS011;10743;52.160;20.910;2022-09-19T10:42:38;6.03;;;3.78;;
21170;SDS011;10743;52.160;20.910;2022-09-19T10:45:29;5.90;;;3.60;;
21170;SDS011;10743;52.160;20.910;2022-09-19T10:48:07;9.15;;;5.38;;
21170;SDS011;10743;52.160;20.910;2022-09-19T10:50:47;9.10;;;5.05;;
21170;SDS011;10743;52.160;20.910;2022-09-19T10:53:21;7.10;;;4.35;;
21170;SDS011;10743;52.160;20.910;2022-09-19T10:55:57;6.03;;;4.13;;
21170;SDS011;10743;52.160;20.910;2022-09-19T10:58:36;6.03;;;4.05;;
21170;SDS011;10743;52.160;20.910;2022-09-19T11:01:19;8.13;;;4.32;;
21170;SDS011;10743;52.160;20.910;2022-09-19T11:04:24;6.38;;;3.88;;
21170;SDS011;10743;52.160;20.910;2022-09-19T11:06:58;11.93;;;5.30;;
21170;SDS011;10743;52.160;20.910;2022-09-19T11:09:46;8.60;;;3.88;;
21170;SDS011;10743;52.160;20.910;2022-09-19T11:12:14;6.63;;;4.18;;
21170;SDS011;10743;52.160;20.910;2022-09-19T11:14:44;6.85;;;4.07;;
21170;SDS011;10743;52.160;20.910;2022-09-19T11:17:20;5.88;;;3.25;;
21170;SDS011;10743;52.160;20.910;2022-09-19T11:29:13;4.47;;;3.00;;
21170;SDS011;10743;52.160;20.910;2022-09-19T11:31:53;6.00;;;3.17;;
21170;SDS011;10743;52.160;20.910;2022-09-19T11:34:59;3.85;;;2.78;;
21170;SDS011;10743;52.160;20.910;2022-09-19T11:47:13;4.72;;;2.88;;
21170;SDS011;10743;52.160;20.910;2022-09-19T11:56:25;5.55;;;2.90;;
21170;SDS011;10743;52.160;20.910;2022-09-19T12:11:12;5.60;;;3.47;;
21170;SDS011;10743;52.160;20.910;2022-09-19T12:15:05;4.25;;;3.15;;
21170;SDS011;10743;52.160;20.910;2022-09-19T12:17:20;5.20;;;3.22;;
21170;SDS011;10743;52.160;20.910;2022-09-19T12:20:05;5.50;;;3.47;;
21170;SDS011;10743;52.160;20.910;2022-09-19T12:22:54;4.28;;;3.08;;
21170;SDS011;10743;52.160;20.910;2022-09-19T12:26:04;4.28;;;3.13;;
21170;SDS011;10743;52.160;20.910;2022-09-19T12:28:38;5.63;;;3.10;;
21170;SDS011;10743;52.160;20.910;2022-09-19T12:31:16;5.63;;;3.22;;
21170;SDS011;10743;52.160;20.910;2022-09-19T12:33:52;6.90;;;3.75;;
21170;SDS011;10743;52.160;20.910;2022-09-19T12:36:33;5.43;;;3.25;;
21170;SDS011;10743;52.160;20.910;2022-09-19T12:39:18;3.70;;;2.50;;
21170;SDS011;10743;52.160;20.910;2022-09-19T12:42:28;6.22;;;2.65;;
21170;SDS011;10743;52.160;20.910;2022-09-19T12:45:12;4.65;;;2.83;;
21170;SDS011;10743;52.160;20.910;2022-09-19T12:47:54;5.75;;;3.13;;
21170;SDS011;10743;52.160;20.910;2022-09-19T12:50:44;5.45;;;2.80;;
21170;SDS011;10743;52.160;20.910;2022-09-19T12:53:22;4.18;;;2.90;;
21170;SDS011;10743;52.160;20.910;2022-09-19T12:56:13;5.38;;;3.45;;
21170;SDS011;10743;52.160;20.910;2022-09-19T12:58:56;6.85;;;3.80;;
21170;SDS011;10743;52.160;20.910;2022-09-19T13:01:37;6.85;;;3.45;;
21170;SDS011;10743;52.160;20.910;2022-09-19T13:07:10;5.53;;;3.80;;
21170;SDS011;10743;52.160;20.910;2022-09-19T13:12:31;4.55;;;2.40;;
21170;SDS011;10743;52.160;20.910;2022-09-19T13:15:22;7.13;;;4.88;;
21170;SDS011;10743;52.160;20.910;2022-09-19T13:17:56;9.95;;;5.45;;
21170;SDS011;10743;52.160;20.910;2022-09-19T13:20:45;3.72;;;2.53;;
21170;SDS011;10743;52.160;20.910;2022-09-19T13:23:34;3.80;;;2.25;;
21170;SDS011;10743;52.160;20.910;2022-09-19T13:28:52;3.88;;;2.20;;
21170;SDS011;10743;52.160;20.910;2022-09-19T13:33:57;6.72;;;3.78;;
21170;SDS011;10743;52.160;20.910;2022-09-19T13:38:55;3.97;;;3.03;;
21170;SDS011;10743;52.160;20.910;2022-09-19T13:41:26;5.15;;;3.10;;
21170;SDS011;10743;52.160;20.910;2022-09-19T13:44:17;4.70;;;2.53;;
21170;SDS011;10743;52.160;20.910;2022-09-19T13:47:04;8.68;;;2.60;;
21170;SDS011;10743;52.160;20.910;2022-09-19T13:52:50;7.65;;;3.42;;
21170;SDS011;10743;52.160;20.910;2022-09-19T13:55:31;5.63;;;2.40;;
21170;SDS011;10743;52.160;20.910;2022-09-19T13:58:15;4.63;;;2.67;;
21170;SDS011;10743;52.160;20.910;2022-09-19T14:03:40;4.93;;;3.17;;
21170;SDS011;10743;52.160;20.910;2022-09-19T14:06:23;4.43;;;3.00;;
21170;SDS011;10743;52.160;20.910;2022-09-19T14:23:13;8.98;;;4.65;;
21170;SDS011;10743;52.160;20.910;2022-09-19T14:25:41;6.13;;;3.30;;
21170;SDS011;10743;52.160;20.910;2022-09-19T14:31:47;7.88;;;4.43;;
21170;SDS011;10743;52.160;20.910;2022-09-19T14:41:04;15.32;;;6.32;;
21170;SDS011;10743;52.160;20.910;2022-09-19T14:47:12;8.95;;;5.50;;
21170;SDS011;10743;52.160;20.910;2022-09-19T14:49:53;8.13;;;5.22;;
21170;SDS011;10743;52.160;20.910;2022-09-19T14:52:25;10.77;;;6.05;;
21170;SDS011;10743;52.160;20.910;2022-09-19T14:54:59;9.90;;;5.50;;
21170;SDS011;10743;52.160;20.910;2022-09-19T14:57:46;8.93;;;4.57;;
21170;SDS011;10743;52.160;20.910;2022-09-19T15:00:20;8.38;;;5.00;;
21170;SDS011;10743;52.160;20.910;2022-09-19T15:02:51;7.53;;;3.80;;
21170;SDS011;10743;52.160;20.910;2022-09-19T15:05:20;6.25;;;4.35;;
21170;SDS011;10743;52.160;20.910;2022-09-19T15:07:54;12.20;;;5.05;;
21170;SDS011;10743;52.160;20.910;2022-09-19T15:15:45;7.78;;;4.25;;
21170;SDS011;10743;52.160;20.910;2022-09-19T15:18:18;9.32;;;4.10;;
21170;SDS011;10743;52.160;20.910;2022-09-19T15:20:59;8.18;;;3.90;;
21170;SDS011;10743;52.160;20.910;2022-09-19T15:23:29;5.00;;;3.78;;
21170;SDS011;10743;52.160;20.910;2022-09-19T15:26:00;8.20;;;4.35;;
21170;SDS011;10743;52.160;20.910;2022-09-19T15:28:33;7.40;;;4.60;;
21170;SDS011;10743;52.160;20.910;2022-09-19T15:33:50;9.60;;;4.63;;
21170;SDS011;10743;52.160;20.910;2022-09-19T15:36:27;9.57;;;4.07;;
21170;SDS011;10743;52.160;20.910;2022-09-19T15:38:56;7.07;;;3.80;;
21170;SDS011;10743;52.160;20.910;2022-09-19T15:41:24;8.18;;;4.05;;
21170;SDS011;10743;52.160;20.910;2022-09-19T15:43:54;9.77;;;4.47;;
21170;SDS011;10743;52.160;20.910;2022-09-19T15:48:58;9.57;;;4.65;;
21170;SDS011;10743;52.160;20.910;2022-09-19T15:53:59;11.30;;;5.55;;
21170;SDS011;10743;52.160;20.910;2022-09-19T15:56:32;7.57;;;4.53;;
21170;SDS011;10743;52.160;20.910;2022-09-19T15:59:20;8.60;;;4.68;;
21170;SDS011;10743;52.160;20.910;2022-09-19T16:01:59;7.65;;;4.45;;
21170;SDS011;10743;52.160;20.910;2022-09-19T16:04:35;7.63;;;4.60;;
21170;SDS011;10743;52.160;20.910;2022-09-19T16:07:27;9.45;;;4.70;;
21170;SDS011;10743;52.160;20.910;2022-09-19T16:10:19;7.35;;;4.45;;
21170;SDS011;10743;52.160;20.910;2022-09-19T16:16:04;8.80;;;4.63;;
21170;SDS011;10743;52.160;20.910;2022-09-19T16:18:55;8.27;;;4.50;;
21170;SDS011;10743;52.160;20.910;2022-09-19T16:21:41;8.02;;;4.43;;
21170;SDS011;10743;52.160;20.910;2022-09-19T16:24:13;10.50;;;5.78;;
21170;SDS011;10743;52.160;20.910;2022-09-19T16:26:43;38.35;;;17.45;;
21170;SDS011;10743;52.160;20.910;2022-09-19T16:29:17;23.95;;;12.35;;
21170;SDS011;10743;52.160;20.910;2022-09-19T16:31:45;15.82;;;7.28;;
21170;SDS011;10743;52.160;20.910;2022-09-19T16:34:17;12.73;;;5.80;;
21170;SDS011;10743;52.160;20.910;2022-09-19T16:37:04;11.02;;;4.97;;
21170;SDS011;10743;52.160;20.910;2022-09-19T16:42:00;9.18;;;4.82;;
21170;SDS011;10743;52.160;20.910;2022-09-19T16:47:47;10.52;;;4.28;;
21170;SDS011;10743;52.160;20.910;2022-09-19T16:50:16;7.75;;;4.55;;
21170;SDS011;10743;52.160;20.910;2022-09-19T16:52:46;9.70;;;4.53;;
21170;SDS011;10743;52.160;20.910;2022-09-19T16:58:07;7.60;;;4.97;;
21170;SDS011;10743;52.160;20.910;2022-09-19T17:00:38;8.63;;;5.20;;
21170;SDS011;10743;52.160;20.910;2022-09-19T17:03:05;9.50;;;5.20;;
21170;SDS011;10743;52.160;20.910;2022-09-19T17:05:34;7.53;;;4.45;;
21170;SDS011;10743;52.160;20.910;2022-09-19T17:08:02;6.30;;;4.53;;
21170;SDS011;10743;52.160;20.910;2022-09-19T17:10:32;8.80;;;5.05;;
21170;SDS011;10743;52.160;20.910;2022-09-19T17:13:00;10.48;;;5.07;;
21170;SDS011;10743;52.160;20.910;2022-09-19T17:15:38;7.32;;;4.80;;
21170;SDS011;10743;52.160;20.910;2022-09-19T17:18:31;9.35;;;5.70;;
21170;SDS011;10743;52.160;20.910;2022-09-19T17:20:59;10.35;;;5.88;;
21170;SDS011;10743;52.160;20.910;2022-09-19T17:23:27;12.75;;;6.30;;
21170;SDS011;10743;52.160;20.910;2022-09-19T17:25:55;18.75;;;9.20;;
21170;SDS011;10743;52.160;20.910;2022-09-19T17:28:24;17.05;;;8.70;;
21170;SDS011;10743;52.160;20.910;2022-09-19T17:30:53;11.10;;;7.05;;
21170;SDS011;10743;52.160;20.910;2022-09-19T17:33:23;11.50;;;6.60;;
21170;SDS011;10743;52.160;20.910;2022-09-19T17:35:52;18.00;;;8.65;;
21170;SDS011;10743;52.160;20.910;2022-09-19T17:38:24;11.40;;;6.80;;
21170;SDS011;10743;52.160;20.910;2022-09-19T17:40:52;11.18;;;5.88;;
21170;SDS011;10743;52.160;20.910;2022-09-19T17:43:20;12.20;;;7.82;;
21170;SDS011;10743;52.160;20.910;2022-09-19T17:45:54;11.82;;;6.80;;
21170;SDS011;10743;52.160;20.910;2022-09-19T17:48:29;14.75;;;6.97;;
21170;SDS011;10743;52.160;20.910;2022-09-19T17:51:04;10.93;;;6.40;;
21170;SDS011;10743;52.160;20.910;2022-09-19T17:53:42;14.10;;;9.35;;
21170;SDS011;10743;52.160;20.910;2022-09-19T17:56:12;13.23;;;8.10;;
21170;SDS011;10743;52.160;20.910;2022-09-19T17:58:40;13.95;;;8.45;;
21170;SDS011;10743;52.160;20.910;2022-09-19T18:01:07;17.95;;;9.13;;